Ana Sayfa
METAR-TAF:

METAR-TAF

Havaalanları :

Iğdır Şehit Bülent Aydın Havalimanı

Iğdır, Türkiye

Enlem: 39-58-36N, Boylam: 43-52-36E, yükseklik: 945 m

Güncel hava durumu gözlemi

Rapor saat 08:50 UTC de 1 saat ve 5 dakika önce yapıldı.
Rüzgar değişken yönden 1 kt
Sıcaklık 15°C
Nem 48%
Basınç 1012 hPa
Görüş mesafesi 10 km veya daha fazla
3500 ft yükseklikte parçalı çok bulutlu
9000 ft yükseklikte parçalı çok bulutlu

METAR: LTCT 280850Z VRB01KT 9999 BKN035 BKN090 15/04 Q1012

Saat: 12:55 (09:55 UTC)

Tahmin

Rapor saat 07:40 UTC de 2 saat ve 15 dakika önce yapıldı.
Ayın 28'si saat 09 UTC'den ayın 28'si saat 18 UTC'ye kadar geçerli Tahmin
Rüzgar doğudan 8 kt
Görüş mesafesi 10 km veya daha fazla
3500 ft yükseklikte parçalı çok bulutlu
9000 ft yükseklikte parçalı çok bulutlu
Geçici
ayın 28'si saat 09 UTC'den ayın 28'si saat 12 UTC'ye kadar
hafif yağmur

TAF: LTCT 280740Z 2809/2818 09008KT 9999 BKN035 BKN090 TEMPO 2809/2812 -RA

4.000'den fazla havaalanı için hava durumu gözlemleri ve tahminleri (METAR ve TAF raporları).

Kullanılabilir istasyonlar harita üzerinde sarı ve kırmızı noktalarla gösterilir.

İstasyonun adını görmek için fareyi noktanın üzerinde gezdirin.

Sonrasında hava gözlem ve tahminlerini görmek için tıklayın.

Haritayı değiştirmek için: yaklaştırmak için siyah artı işaretli yeşil düğmeye ve uzaklaştırmak için de eksi işaretli düğmeye hızla tıklayın; bitişik haritalar için yeşil okları kullanın.


METAR-TAF: